createdAt,value
2022-08-29T00:00:03.311Z,1012.05
2022-08-29T00:01:03.317Z,1012.05
2022-08-29T00:02:02.288Z,1012.02
2022-08-29T00:03:02.330Z,1012.01
2022-08-29T00:04:02.292Z,1011.99
2022-08-29T00:05:02.667Z,1012.01
2022-08-29T00:06:02.221Z,1011.99
2022-08-29T00:07:02.814Z,1011.97
2022-08-29T00:08:03.385Z,1011.98
2022-08-29T00:09:03.324Z,1011.98
2022-08-29T00:10:03.181Z,1011.96
2022-08-29T00:11:02.991Z,1011.94
2022-08-29T00:12:02.833Z,1011.93
2022-08-29T00:13:02.892Z,1011.94
2022-08-29T00:14:03.458Z,1011.91
2022-08-29T00:15:02.779Z,1011.92
2022-08-29T00:16:03.369Z,1011.96
2022-08-29T00:17:03.047Z,1011.97
2022-08-29T00:18:03.597Z,1012.02
2022-08-29T00:19:03.030Z,1011.97
2022-08-29T00:20:03.007Z,1012.01
2022-08-29T00:21:03.009Z,1011.99
2022-08-29T00:22:02.898Z,1012.00
2022-08-29T00:23:03.023Z,1011.98
2022-08-29T00:24:02.889Z,1011.98
2022-08-29T00:25:02.905Z,1012.03
2022-08-29T00:26:02.866Z,1011.99
2022-08-29T00:27:02.441Z,1011.99
2022-08-29T00:28:02.849Z,1012.03
2022-08-29T00:29:02.530Z,1012.06
2022-08-29T00:30:02.712Z,1012.04
2022-08-29T00:31:02.573Z,1012.06
2022-08-29T00:32:02.827Z,1012.06
2022-08-29T00:33:02.663Z,1012.07
2022-08-29T00:34:02.942Z,1012.03
2022-08-29T00:35:02.589Z,1012.04
2022-08-29T00:36:02.452Z,1012.03
2022-08-29T00:37:03.021Z,1011.99
2022-08-29T00:38:03.520Z,1012.00
2022-08-29T00:39:03.049Z,1011.96
2022-08-29T00:40:03.046Z,1011.94
2022-08-29T00:41:02.945Z,1011.91
2022-08-29T00:42:02.371Z,1011.96
2022-08-29T00:43:02.891Z,1011.95
2022-08-29T00:44:02.827Z,1012.01
2022-08-29T00:45:02.738Z,1012.02
2022-08-29T00:46:02.675Z,1012.03
2022-08-29T00:47:02.920Z,1012.03
2022-08-29T00:48:03.028Z,1012.01
2022-08-29T00:49:02.991Z,1012.02
2022-08-29T00:50:02.869Z,1012.03
2022-08-29T00:51:02.813Z,1012.05
2022-08-29T00:52:03.377Z,1012.03
2022-08-29T00:53:03.782Z,1012.07
2022-08-29T00:54:03.394Z,1012.11
2022-08-29T00:55:03.257Z,1012.09
2022-08-29T00:56:03.222Z,1012.08
2022-08-29T00:57:02.949Z,1012.07
2022-08-29T00:58:03.243Z,1012.07
2022-08-29T00:59:02.837Z,1012.04
2022-08-29T01:00:03.140Z,1012.07
2022-08-29T01:01:02.994Z,1012.10
2022-08-29T01:02:02.645Z,1012.11
2022-08-29T01:03:02.656Z,1012.11
2022-08-29T01:04:03.073Z,1012.15
2022-08-29T01:05:02.921Z,1012.17
2022-08-29T01:06:03.230Z,1012.15
2022-08-29T01:07:02.651Z,1012.15
2022-08-29T01:08:02.635Z,1012.13
2022-08-29T01:09:02.265Z,1012.11
2022-08-29T01:10:02.558Z,1012.16
2022-08-29T01:11:02.410Z,1012.14
2022-08-29T01:12:03.032Z,1012.14
2022-08-29T01:13:02.876Z,1012.19
2022-08-29T01:14:03.295Z,1012.20
2022-08-29T01:15:02.654Z,1012.21
2022-08-29T01:16:03.266Z,1012.19
2022-08-29T01:17:02.570Z,1012.20
2022-08-29T01:18:02.516Z,1012.23
2022-08-29T01:19:02.438Z,1012.22
2022-08-29T01:20:02.469Z,1012.24
2022-08-29T01:21:02.344Z,1012.22
2022-08-29T01:22:03.008Z,1012.25
2022-08-29T01:23:02.862Z,1012.27
2022-08-29T01:24:02.747Z,1012.28
2022-08-29T01:25:02.671Z,1012.29
2022-08-29T01:26:02.853Z,1012.31
2022-08-29T01:27:02.469Z,1012.32
2022-08-29T01:28:02.342Z,1012.28
2022-08-29T01:29:02.186Z,1012.30
2022-08-29T01:30:02.066Z,1012.30
2022-08-29T01:31:02.251Z,1012.30
2022-08-29T01:32:02.565Z,1012.33
2022-08-29T01:33:02.504Z,1012.30
2022-08-29T01:34:02.380Z,1012.31
2022-08-29T01:35:03.026Z,1012.28
2022-08-29T01:36:02.635Z,1012.31
2022-08-29T01:37:03.365Z,1012.30
2022-08-29T01:38:03.048Z,1012.34
2022-08-29T01:39:03.162Z,1012.33
2022-08-29T01:40:03.398Z,1012.36
2022-08-29T01:41:03.022Z,1012.36
2022-08-29T01:42:02.145Z,1012.35
2022-08-29T01:43:02.742Z,1012.37
2022-08-29T01:44:02.270Z,1012.39
2022-08-29T01:45:02.730Z,1012.40
2022-08-29T01:46:02.680Z,1012.41
2022-08-29T01:47:03.659Z,1012.41
2022-08-29T01:48:03.706Z,1012.40
2022-08-29T01:49:02.768Z,1012.43
2022-08-29T01:50:03.385Z,1012.43
2022-08-29T01:51:03.425Z,1012.42
2022-08-29T01:52:02.566Z,1012.44
2022-08-29T01:53:02.434Z,1012.42
2022-08-29T01:54:02.360Z,1012.42
2022-08-29T01:55:02.208Z,1012.44
2022-08-29T01:56:02.126Z,1012.43
2022-08-29T01:57:02.301Z,1012.46
2022-08-29T01:58:02.571Z,1012.46
2022-08-29T01:59:02.465Z,1012.48
2022-08-29T02:00:02.433Z,1012.45
2022-08-29T02:01:02.756Z,1012.49
2022-08-29T02:02:02.319Z,1012.49
2022-08-29T02:03:01.800Z,1012.50
2022-08-29T02:04:01.732Z,1012.51
2022-08-29T02:05:02.145Z,1012.49
2022-08-29T02:06:02.114Z,1012.50
2022-08-29T02:07:02.145Z,1012.55
2022-08-29T02:08:02.247Z,1012.47
2022-08-29T02:09:02.098Z,1012.52
2022-08-29T02:10:02.628Z,1012.51
2022-08-29T02:11:02.126Z,1012.49
2022-08-29T02:12:02.605Z,1012.49
2022-08-29T02:13:02.381Z,1012.48
2022-08-29T02:14:02.243Z,1012.50
2022-08-29T02:15:02.103Z,1012.54
2022-08-29T02:16:02.590Z,1012.55
2022-08-29T02:17:01.641Z,1012.55
2022-08-29T02:18:01.597Z,1012.55
2022-08-29T02:19:02.091Z,1012.58
2022-08-29T02:20:01.987Z,1012.57
2022-08-29T02:21:01.838Z,1012.60
2022-08-29T02:22:02.391Z,1012.59
2022-08-29T02:23:01.861Z,1012.61
2022-08-29T02:24:16.033Z,1012.61
2022-08-29T02:25:02.139Z,1012.62
2022-08-29T02:26:02.169Z,1012.58
2022-08-29T02:27:02.039Z,1012.61
2022-08-29T02:28:02.587Z,1012.61
2022-08-29T02:29:02.515Z,1012.60
2022-08-29T02:30:02.389Z,1012.57
2022-08-29T02:31:02.500Z,1012.58
2022-08-29T02:32:02.997Z,1012.54
2022-08-29T02:33:03.496Z,1012.56
2022-08-29T02:34:03.256Z,1012.55
2022-08-29T02:35:03.005Z,1012.51
2022-08-29T02:36:03.099Z,1012.50
2022-08-29T02:37:02.020Z,1012.51
2022-08-29T02:38:01.779Z,1012.53
2022-08-29T02:39:02.316Z,1012.52
2022-08-29T02:40:02.102Z,1012.49
2022-08-29T02:41:01.861Z,1012.50
2022-08-29T02:42:02.558Z,1012.45
2022-08-29T02:43:02.800Z,1012.48
2022-08-29T02:44:02.719Z,1012.47
2022-08-29T02:45:02.660Z,1012.45
2022-08-29T02:46:02.436Z,1012.43
2022-08-29T02:47:02.213Z,1012.46
2022-08-29T02:48:02.582Z,1012.42
2022-08-29T02:49:02.632Z,1012.46
2022-08-29T02:50:02.264Z,1012.44
2022-08-29T02:51:02.443Z,1012.45
2022-08-29T02:52:02.521Z,1012.44
2022-08-29T02:53:02.488Z,1012.43
2022-08-29T02:54:02.895Z,1012.48
2022-08-29T02:55:02.618Z,1012.46
2022-08-29T02:56:02.520Z,1012.48
2022-08-29T02:57:02.387Z,1012.46
2022-08-29T02:58:02.946Z,1012.43
2022-08-29T02:59:02.601Z,1012.43
2022-08-29T03:00:02.567Z,1012.48
2022-08-29T03:01:02.539Z,1012.47
2022-08-29T03:02:03.361Z,1012.47
2022-08-29T03:03:03.165Z,1012.48
2022-08-29T03:04:02.959Z,1012.50
2022-08-29T03:05:02.844Z,1012.52
2022-08-29T03:06:03.041Z,1012.51
2022-08-29T03:07:02.901Z,1012.52
2022-08-29T03:08:03.459Z,1012.54
2022-08-29T03:09:03.148Z,1012.52
2022-08-29T03:10:03.112Z,1012.52
2022-08-29T03:11:03.056Z,1012.52
2022-08-29T03:12:02.969Z,1012.52
2022-08-29T03:13:02.899Z,1012.49
2022-08-29T03:14:03.509Z,1012.48
2022-08-29T03:15:03.043Z,1012.43
2022-08-29T03:16:02.936Z,1012.47
2022-08-29T03:17:03.607Z,1012.43
2022-08-29T03:18:03.702Z,1012.41
2022-08-29T03:19:03.585Z,1012.42
2022-08-29T03:20:03.451Z,1012.38
2022-08-29T03:21:03.422Z,1012.36
2022-08-29T03:22:03.038Z,1012.35
2022-08-29T03:23:03.092Z,1012.32
2022-08-29T03:24:03.027Z,1012.32
2022-08-29T03:25:02.941Z,1012.31
2022-08-29T03:26:03.446Z,1012.26
2022-08-29T03:27:03.907Z,1012.26
2022-08-29T03:28:03.368Z,1012.29
2022-08-29T03:29:03.249Z,1012.26
2022-08-29T03:30:03.860Z,1012.23
2022-08-29T03:31:03.489Z,1012.25
2022-08-29T03:32:03.367Z,1012.25
2022-08-29T03:33:03.499Z,1012.25
2022-08-29T03:34:03.403Z,1012.23
2022-08-29T03:35:03.361Z,1012.23
2022-08-29T03:36:03.226Z,1012.22
2022-08-29T03:37:02.826Z,1012.20
2022-08-29T03:38:03.147Z,1012.24
2022-08-29T03:39:03.095Z,1012.17
2022-08-29T03:40:03.132Z,1012.26
2022-08-29T03:41:02.920Z,1012.27
2022-08-29T03:42:02.992Z,1012.24
2022-08-29T03:43:02.875Z,1012.20
2022-08-29T03:44:03.270Z,1012.18
2022-08-29T03:45:03.142Z,1012.23
2022-08-29T03:46:03.276Z,1012.21
2022-08-29T03:47:02.701Z,1012.23
2022-08-29T03:48:02.650Z,1012.24
2022-08-29T03:49:02.524Z,1012.22
2022-08-29T03:50:02.859Z,1012.22
2022-08-29T03:51:02.706Z,1012.24
2022-08-29T03:52:03.238Z,1012.29
2022-08-29T03:53:03.000Z,1012.29
2022-08-29T03:54:03.243Z,1012.29
2022-08-29T03:55:03.118Z,1012.32
2022-08-29T03:56:03.659Z,1012.32
2022-08-29T03:57:03.331Z,1012.32
2022-08-29T03:58:03.552Z,1012.32
2022-08-29T03:59:03.232Z,1012.36
2022-08-29T04:00:03.183Z,1012.36
2022-08-29T04:01:03.307Z,1012.32
2022-08-29T04:02:02.512Z,1012.36
2022-08-29T04:03:02.119Z,1012.37
2022-08-29T04:04:02.737Z,1012.38
2022-08-29T04:05:05.929Z,1012.40
2022-08-29T04:06:02.315Z,1012.40
2022-08-29T04:07:02.913Z,1012.36
2022-08-29T04:08:02.912Z,1012.38
2022-08-29T04:09:02.826Z,1012.35
2022-08-29T04:10:02.685Z,1012.38
2022-08-29T04:11:03.237Z,1012.34
2022-08-29T04:12:02.912Z,1012.35
2022-08-29T04:13:03.223Z,1012.31
2022-08-29T04:14:03.193Z,1012.37
2022-08-29T04:15:02.935Z,1012.34
2022-08-29T04:16:02.836Z,1012.33
2022-08-29T04:17:02.518Z,1012.31
2022-08-29T04:18:02.524Z,1012.33
2022-08-29T04:19:02.157Z,1012.30
2022-08-29T04:20:02.201Z,1012.34
2022-08-29T04:21:02.287Z,1012.36
2022-08-29T04:22:02.718Z,1012.36
2022-08-29T04:23:02.643Z,1012.41
2022-08-29T04:24:02.951Z,1012.41
2022-08-29T04:25:03.014Z,1012.43
2022-08-29T04:26:26.926Z,1012.42
2022-08-29T04:27:02.025Z,1012.43
2022-08-29T04:28:01.992Z,1012.40
2022-08-29T04:29:02.103Z,1012.44
2022-08-29T04:30:02.505Z,1012.45
2022-08-29T04:31:02.539Z,1012.45
2022-08-29T04:32:02.504Z,1012.47
2022-08-29T04:33:02.149Z,1012.49
2022-08-29T04:34:02.545Z,1012.51
2022-08-29T04:35:02.553Z,1012.48
2022-08-29T04:36:02.406Z,1012.48
2022-08-29T04:37:03.105Z,1012.52
2022-08-29T04:38:03.074Z,1012.51
2022-08-29T04:39:02.944Z,1012.45
2022-08-29T04:40:03.146Z,1012.45
2022-08-29T04:41:02.867Z,1012.48
2022-08-29T04:42:02.658Z,1012.50
2022-08-29T04:43:02.361Z,1012.45
2022-08-29T04:44:02.541Z,1012.45
2022-08-29T04:45:02.551Z,1012.47
2022-08-29T04:46:02.638Z,1012.50
2022-08-29T04:47:02.193Z,1012.50
2022-08-29T04:48:03.728Z,1012.51
2022-08-29T04:49:04.407Z,1012.51
2022-08-29T04:50:02.561Z,1012.54
2022-08-29T04:51:02.551Z,1012.53
2022-08-29T04:52:03.235Z,1012.52
2022-08-29T04:53:03.230Z,1012.51
2022-08-29T04:54:03.217Z,1012.50
2022-08-29T04:55:03.323Z,1012.52
2022-08-29T04:56:03.067Z,1012.54
2022-08-29T04:57:02.843Z,1012.57
2022-08-29T04:58:04.036Z,1012.56
2022-08-29T04:59:02.661Z,1012.56
2022-08-29T05:00:02.567Z,1012.57
2022-08-29T05:01:02.437Z,1012.58
2022-08-29T05:02:03.221Z,1012.56
2022-08-29T05:03:03.165Z,1012.58
2022-08-29T05:04:02.698Z,1012.59
2022-08-29T05:05:02.718Z,1012.53
2022-08-29T05:06:03.059Z,1012.52
2022-08-29T05:07:02.174Z,1012.50
2022-08-29T05:08:02.196Z,1012.50
2022-08-29T05:09:02.845Z,1012.53
2022-08-29T05:10:02.287Z,1012.51
2022-08-29T05:11:02.177Z,1012.51
2022-08-29T05:12:05.056Z,1012.50
2022-08-29T05:13:02.597Z,1012.48
2022-08-29T05:14:02.306Z,1012.49
2022-08-29T05:15:02.351Z,1012.49
2022-08-29T05:16:02.634Z,1012.44
2022-08-29T05:17:03.119Z,1012.44
2022-08-29T05:18:03.128Z,1012.45
2022-08-29T05:19:03.105Z,1012.46
2022-08-29T05:20:02.758Z,1012.49
2022-08-29T05:21:03.133Z,1012.48
2022-08-29T05:22:02.357Z,1012.49
2022-08-29T05:23:02.495Z,1012.54
2022-08-29T05:24:02.415Z,1012.54
2022-08-29T05:25:02.466Z,1012.52
2022-08-29T05:26:02.773Z,1012.56
2022-08-29T05:27:02.471Z,1012.58
2022-08-29T05:28:02.461Z,1012.53
2022-08-29T05:29:02.507Z,1012.56
2022-08-29T05:30:02.933Z,1012.57
2022-08-29T05:31:03.013Z,1012.59
2022-08-29T05:32:02.149Z,1012.57
2022-08-29T05:33:02.355Z,1012.60
2022-08-29T05:34:02.516Z,1012.62
2022-08-29T05:35:02.552Z,1012.60
2022-08-29T05:36:02.665Z,1012.64
2022-08-29T05:37:02.366Z,1012.67
2022-08-29T05:38:05.942Z,1012.68
2022-08-29T05:39:02.646Z,1012.71
2022-08-29T05:40:02.774Z,1012.73
2022-08-29T05:41:02.792Z,1012.75
2022-08-29T05:42:02.717Z,1012.79
2022-08-29T05:43:02.721Z,1012.81
2022-08-29T05:44:02.684Z,1012.80
2022-08-29T05:45:02.734Z,1012.82
2022-08-29T05:46:03.056Z,1012.82
2022-08-29T05:47:02.203Z,1012.85
2022-08-29T05:48:02.240Z,1012.82
2022-08-29T05:49:02.246Z,1012.85
2022-08-29T05:50:02.090Z,1012.85
2022-08-29T05:51:02.093Z,1012.86
2022-08-29T05:52:03.027Z,1012.87
2022-08-29T05:53:02.858Z,1012.89
2022-08-29T05:54:03.070Z,1012.93
2022-08-29T05:55:02.702Z,1012.90
2022-08-29T05:56:02.803Z,1012.88
2022-08-29T05:57:02.836Z,1012.93
2022-08-29T05:58:02.936Z,1012.90
2022-08-29T05:59:03.006Z,1012.87
2022-08-29T06:00:03.126Z,1012.91
2022-08-29T06:01:03.260Z,1012.90
2022-08-29T06:02:02.168Z,1012.90
2022-08-29T06:03:02.495Z,1012.91
2022-08-29T06:04:02.925Z,1012.91
2022-08-29T06:05:02.198Z,1012.89
2022-08-29T06:06:02.185Z,1012.91
2022-08-29T06:07:02.891Z,1012.90
2022-08-29T06:08:02.890Z,1012.86
2022-08-29T06:09:03.335Z,1012.83
2022-08-29T06:10:03.821Z,1012.85
2022-08-29T06:11:03.120Z,1012.85
2022-08-29T06:12:02.127Z,1012.88
2022-08-29T06:13:02.180Z,1012.91
2022-08-29T06:14:02.286Z,1012.87
2022-08-29T06:15:02.377Z,1012.86
2022-08-29T06:16:02.582Z,1012.85
2022-08-29T06:17:02.582Z,1012.91
2022-08-29T06:18:02.604Z,1012.91
2022-08-29T06:19:02.847Z,1012.90
2022-08-29T06:20:02.691Z,1012.95
2022-08-29T06:21:02.718Z,1012.93
2022-08-29T06:22:02.739Z,1012.96
2022-08-29T06:23:02.473Z,1012.98
2022-08-29T06:24:02.524Z,1012.97
2022-08-29T06:25:11.851Z,1012.95
2022-08-29T06:26:02.500Z,1013.02
2022-08-29T06:27:02.294Z,1012.99
2022-08-29T06:28:02.319Z,1013.02
2022-08-29T06:29:02.308Z,1013.02
2022-08-29T06:30:02.393Z,1013.02
2022-08-29T06:31:02.454Z,1013.03
2022-08-29T06:32:02.381Z,1013.01
2022-08-29T06:33:02.227Z,1013.02
2022-08-29T06:34:02.261Z,1013.03
2022-08-29T06:35:02.554Z,1013.03
2022-08-29T06:36:02.560Z,1013.02
2022-08-29T06:37:02.858Z,1013.02
2022-08-29T06:38:02.744Z,1013.02
2022-08-29T06:39:02.706Z,1013.01
2022-08-29T06:40:02.768Z,1013.02
2022-08-29T06:41:02.805Z,1013.00
2022-08-29T06:42:02.571Z,1012.97
2022-08-29T06:43:02.457Z,1012.98
2022-08-29T06:44:02.608Z,1012.96
2022-08-29T06:45:02.694Z,1012.96
2022-08-29T06:46:02.910Z,1012.98
2022-08-29T06:47:02.634Z,1012.98
2022-08-29T06:48:02.423Z,1012.98
2022-08-29T06:49:02.615Z,1012.95
2022-08-29T06:50:02.302Z,1012.94
2022-08-29T06:51:02.433Z,1012.96
2022-08-29T06:52:03.247Z,1012.98
2022-08-29T06:53:20.793Z,1012.99
2022-08-29T06:54:03.077Z,1013.00
2022-08-29T06:55:03.089Z,1013.02
2022-08-29T06:56:03.389Z,1013.02
2022-08-29T06:57:02.961Z,1013.03
2022-08-29T06:58:02.958Z,1012.99
2022-08-29T06:59:02.857Z,1013.03
2022-08-29T07:00:21.475Z,1013.03
2022-08-29T07:01:03.084Z,1013.03
2022-08-29T07:02:03.236Z,1013.04
2022-08-29T07:03:03.168Z,1013.04
2022-08-29T07:04:03.217Z,1013.03
2022-08-29T07:05:03.306Z,1013.08
2022-08-29T07:06:03.101Z,1013.07
2022-08-29T07:07:02.184Z,1013.08
2022-08-29T07:08:02.140Z,1013.05
2022-08-29T07:09:02.234Z,1013.05
2022-08-29T07:10:02.227Z,1013.04
2022-08-29T07:11:02.334Z,1013.07
2022-08-29T07:12:02.662Z,1013.08
2022-08-29T07:13:02.290Z,1013.01
2022-08-29T07:14:02.667Z,1013.04
2022-08-29T07:15:02.830Z,1013.04
2022-08-29T07:16:02.743Z,1013.03
2022-08-29T07:17:03.000Z,1013.03
2022-08-29T07:18:03.135Z,1013.03
2022-08-29T07:19:02.597Z,1013.02
2022-08-29T07:20:02.579Z,1013.03
2022-08-29T07:21:02.724Z,1013.03
2022-08-29T07:22:02.967Z,1013.05
2022-08-29T07:23:03.019Z,1013.06
2022-08-29T07:24:02.949Z,1013.08
2022-08-29T07:25:02.955Z,1013.12
2022-08-29T07:26:03.090Z,1013.11
2022-08-29T07:27:03.281Z,1013.11
2022-08-29T07:28:03.280Z,1013.09
2022-08-29T07:29:03.304Z,1013.10
2022-08-29T07:30:03.317Z,1013.11
2022-08-29T07:31:03.431Z,1013.07
2022-08-29T07:32:03.170Z,1013.14
2022-08-29T07:33:03.244Z,1013.12
2022-08-29T07:34:03.522Z,1013.13
2022-08-29T07:35:03.299Z,1013.13
2022-08-29T07:36:03.359Z,1013.13
2022-08-29T07:37:05.801Z,1013.11
2022-08-29T07:38:02.776Z,1013.11
2022-08-29T07:39:02.788Z,1013.08
2022-08-29T07:40:02.855Z,1013.10
2022-08-29T07:41:02.944Z,1013.07
2022-08-29T07:42:02.555Z,1013.06
2022-08-29T07:43:02.843Z,1013.05
2022-08-29T07:44:02.659Z,1013.04
2022-08-29T07:45:02.742Z,1013.00
2022-08-29T07:46:02.725Z,1013.02
2022-08-29T07:47:02.595Z,1013.01
2022-08-29T07:48:02.627Z,1013.00
2022-08-29T07:49:02.499Z,1013.02
2022-08-29T07:50:02.675Z,1013.03
2022-08-29T07:51:05.157Z,1013.04
2022-08-29T07:52:03.565Z,1013.04
2022-08-29T07:53:03.418Z,1013.03
2022-08-29T07:54:04.486Z,1013.04
2022-08-29T07:55:03.523Z,1012.96
2022-08-29T07:56:03.026Z,1012.99
2022-08-29T07:57:02.730Z,1012.94
2022-08-29T07:58:02.303Z,1012.93
2022-08-29T07:59:02.761Z,1012.98
2022-08-29T08:00:02.699Z,1012.98
2022-08-29T08:01:02.523Z,1012.96
2022-08-29T08:02:02.430Z,1012.96
2022-08-29T08:03:02.090Z,1012.97
2022-08-29T08:04:01.910Z,1012.98
2022-08-29T08:05:02.196Z,1012.95
2022-08-29T08:06:03.943Z,1012.95
2022-08-29T08:07:02.081Z,1012.96
2022-08-29T08:08:08.639Z,1012.97
2022-08-29T08:09:02.458Z,1012.94
2022-08-29T08:10:02.569Z,1012.97
2022-08-29T08:11:02.374Z,1012.96
2022-08-29T08:12:06.289Z,1012.95
2022-08-29T08:13:02.391Z,1012.93
2022-08-29T08:14:02.461Z,1012.90
2022-08-29T08:15:02.793Z,1012.92
2022-08-29T08:16:02.942Z,1012.94
2022-08-29T08:17:01.809Z,1012.93
2022-08-29T08:18:02.158Z,1012.96
2022-08-29T08:19:02.245Z,1012.93
2022-08-29T08:20:01.896Z,1012.96
2022-08-29T08:21:02.129Z,1012.93
2022-08-29T08:22:02.452Z,1012.93
2022-08-29T08:23:03.000Z,1012.90
2022-08-29T08:24:02.874Z,1012.94
2022-08-29T08:25:02.886Z,1012.92
2022-08-29T08:26:02.922Z,1012.91
2022-08-29T08:27:01.897Z,1012.95
2022-08-29T08:28:01.890Z,1012.95
2022-08-29T08:29:01.905Z,1012.97
2022-08-29T08:30:02.231Z,1012.94
2022-08-29T08:31:05.984Z,1012.93
2022-08-29T08:32:02.317Z,1012.89
2022-08-29T08:33:02.367Z,1012.87
2022-08-29T08:34:02.748Z,1012.86
2022-08-29T08:35:02.782Z,1012.88
2022-08-29T08:36:02.922Z,1012.85
2022-08-29T08:37:02.000Z,1012.86
2022-08-29T08:38:01.618Z,1012.85
2022-08-29T08:39:02.159Z,1012.85
2022-08-29T08:40:01.960Z,1012.84
2022-08-29T08:41:02.121Z,1012.86
2022-08-29T08:42:02.014Z,1012.83
2022-08-29T08:43:01.912Z,1012.87
2022-08-29T08:44:02.045Z,1012.84
2022-08-29T08:45:02.343Z,1012.82
2022-08-29T08:46:02.542Z,1012.83
2022-08-29T08:47:02.446Z,1012.87
2022-08-29T08:48:02.484Z,1012.87
2022-08-29T08:49:02.463Z,1012.90
2022-08-29T08:50:02.968Z,1012.87
2022-08-29T08:51:02.808Z,1012.89
2022-08-29T08:52:01.950Z,1012.88
2022-08-29T08:53:02.000Z,1012.86
2022-08-29T08:54:01.792Z,1012.89
2022-08-29T08:55:01.879Z,1012.90
2022-08-29T08:56:01.883Z,1012.89
2022-08-29T08:57:02.530Z,1012.90
2022-08-29T08:58:02.880Z,1012.89
2022-08-29T08:59:02.568Z,1012.91
2022-08-29T09:00:02.559Z,1012.91
2022-08-29T09:01:02.508Z,1012.89
2022-08-29T09:02:07.247Z,1012.85
2022-08-29T09:03:03.199Z,1012.88
2022-08-29T09:04:02.855Z,1012.88
2022-08-29T09:05:02.909Z,1012.87
2022-08-29T09:06:02.943Z,1012.88
2022-08-29T09:07:03.214Z,1012.88
2022-08-29T09:08:03.015Z,1012.88
2022-08-29T09:09:02.905Z,1012.92
2022-08-29T09:10:03.185Z,1012.91
2022-08-29T09:11:03.499Z,1012.91
2022-08-29T09:12:03.187Z,1012.91
2022-08-29T09:13:03.048Z,1012.90
2022-08-29T09:14:03.509Z,1012.88
2022-08-29T09:15:03.661Z,1012.87
2022-08-29T09:16:03.506Z,1012.88
2022-08-29T09:17:03.453Z,1012.89
2022-08-29T09:18:03.402Z,1012.86
2022-08-29T09:19:03.881Z,1012.87
2022-08-29T09:20:03.407Z,1012.89
2022-08-29T09:21:06.586Z,1012.87
2022-08-29T09:22:02.652Z,1012.89
2022-08-29T09:23:02.458Z,1012.89
2022-08-29T09:24:02.784Z,1012.89
2022-08-29T09:25:02.920Z,1012.87
2022-08-29T09:26:02.820Z,1012.91
2022-08-29T09:27:02.850Z,1012.87
2022-08-29T09:28:02.934Z,1012.88
2022-08-29T09:29:03.075Z,1012.89
2022-08-29T09:30:03.139Z,1012.86
2022-08-29T09:31:03.103Z,1012.88
2022-08-29T09:32:03.155Z,1012.88
2022-08-29T09:33:03.090Z,1012.87
2022-08-29T09:34:03.206Z,1012.89
2022-08-29T09:35:08.942Z,1012.83
2022-08-29T09:36:03.478Z,1012.84
2022-08-29T09:37:03.417Z,1012.84
2022-08-29T09:38:03.561Z,1012.85
2022-08-29T09:39:03.723Z,1012.84
2022-08-29T09:40:03.275Z,1012.81
2022-08-29T09:41:03.345Z,1012.83
2022-08-29T09:42:03.453Z,1012.79
2022-08-29T09:43:03.206Z,1012.78
2022-08-29T09:44:03.507Z,1012.76
2022-08-29T09:45:03.676Z,1012.80
2022-08-29T09:46:03.914Z,1012.78
2022-08-29T09:47:02.926Z,1012.76
2022-08-29T09:48:03.234Z,1012.78
2022-08-29T09:49:03.105Z,1012.77
2022-08-29T09:50:03.286Z,1012.81
2022-08-29T09:51:03.096Z,1012.76
2022-08-29T09:52:03.180Z,1012.72
2022-08-29T09:53:03.329Z,1012.74
2022-08-29T09:54:03.097Z,1012.75
2022-08-29T09:55:03.341Z,1012.76
2022-08-29T09:56:03.485Z,1012.75
2022-08-29T09:57:04.065Z,1012.70
2022-08-29T09:58:04.125Z,1012.74
2022-08-29T09:59:03.533Z,1012.75
2022-08-29T10:00:03.697Z,1012.69
2022-08-29T10:01:04.498Z,1012.72
2022-08-29T10:02:02.587Z,1012.68
2022-08-29T10:03:02.795Z,1012.66
2022-08-29T10:04:02.665Z,1012.64
2022-08-29T10:05:02.683Z,1012.64
2022-08-29T10:06:02.710Z,1012.61
2022-08-29T10:07:02.089Z,1012.60
2022-08-29T10:08:02.059Z,1012.61
2022-08-29T10:09:02.177Z,1012.65
2022-08-29T10:10:01.661Z,1012.62
2022-08-29T10:11:01.828Z,1012.62
2022-08-29T10:12:02.562Z,1012.58
2022-08-29T10:13:02.706Z,1012.60
2022-08-29T10:14:02.448Z,1012.59
2022-08-29T10:15:02.600Z,1012.58
2022-08-29T10:16:02.863Z,1012.54
2022-08-29T10:17:02.858Z,1012.60
2022-08-29T10:18:02.628Z,1012.57
2022-08-29T10:19:02.663Z,1012.58
2022-08-29T10:20:02.501Z,1012.57
2022-08-29T10:21:02.593Z,1012.58
2022-08-29T10:22:02.353Z,1012.56
2022-08-29T10:23:01.863Z,1012.57
2022-08-29T10:24:02.260Z,1012.54
2022-08-29T10:25:02.434Z,1012.56
2022-08-29T10:26:02.263Z,1012.58
2022-08-29T10:27:02.832Z,1012.58
2022-08-29T10:28:02.593Z,1012.56
2022-08-29T10:29:02.799Z,1012.53
2022-08-29T10:30:02.919Z,1012.53
2022-08-29T10:31:02.373Z,1012.58
2022-08-29T10:32:02.670Z,1012.53
2022-08-29T10:33:02.559Z,1012.49
2022-08-29T10:34:02.090Z,1012.49
2022-08-29T10:35:02.265Z,1012.47
2022-08-29T10:36:02.364Z,1012.46
2022-08-29T10:37:02.739Z,1012.49
2022-08-29T10:38:02.837Z,1012.51
2022-08-29T10:39:02.752Z,1012.51
2022-08-29T10:40:02.804Z,1012.52
2022-08-29T10:41:02.842Z,1012.51
2022-08-29T10:42:02.889Z,1012.49
2022-08-29T10:43:02.925Z,1012.45
2022-08-29T10:44:02.822Z,1012.46
2022-08-29T10:45:02.985Z,1012.47
2022-08-29T10:46:03.029Z,1012.41
2022-08-29T10:47:03.033Z,1012.39
2022-08-29T10:48:02.561Z,1012.40
2022-08-29T10:49:03.090Z,1012.38
2022-08-29T10:50:02.497Z,1012.36
2022-08-29T10:51:02.933Z,1012.30
2022-08-29T10:52:03.079Z,1012.31
2022-08-29T10:53:02.651Z,1012.29
2022-08-29T10:54:02.833Z,1012.28
2022-08-29T10:55:02.960Z,1012.25
2022-08-29T10:56:06.579Z,1012.23
2022-08-29T10:57:02.516Z,1012.21
2022-08-29T10:58:02.577Z,1012.20
2022-08-29T10:59:02.472Z,1012.20
2022-08-29T11:00:02.589Z,1012.18
2022-08-29T11:01:06.757Z,1012.22
2022-08-29T11:02:03.276Z,1012.23
2022-08-29T11:03:03.415Z,1012.14
2022-08-29T11:04:03.616Z,1012.16
2022-08-29T11:05:03.418Z,1012.12
2022-08-29T11:06:03.559Z,1012.11
2022-08-29T11:07:03.238Z,1012.11
2022-08-29T11:08:03.047Z,1012.11
2022-08-29T11:09:03.173Z,1012.08
2022-08-29T11:10:03.208Z,1012.04
2022-08-29T11:11:03.112Z,1012.05
2022-08-29T11:12:03.669Z,1012.02
2022-08-29T11:13:03.517Z,1012.08
2022-08-29T11:14:05.864Z,1012.10
2022-08-29T11:15:03.231Z,1012.06
2022-08-29T11:16:03.181Z,1012.06
2022-08-29T11:17:03.170Z,1012.07
2022-08-29T11:18:02.503Z,1012.07
2022-08-29T11:19:02.619Z,1012.09
2022-08-29T11:20:02.775Z,1012.03
2022-08-29T11:21:03.097Z,1012.05
2022-08-29T11:22:02.532Z,1012.02
2022-08-29T11:23:03.209Z,1011.99
2022-08-29T11:24:02.906Z,1012.00
2022-08-29T11:25:03.076Z,1011.98
2022-08-29T11:26:02.869Z,1011.95
2022-08-29T11:27:02.948Z,1011.93
2022-08-29T11:28:03.074Z,1011.92
2022-08-29T11:29:03.290Z,1011.87
2022-08-29T11:30:03.346Z,1011.91
2022-08-29T11:31:03.261Z,1011.92
2022-08-29T11:32:03.428Z,1011.95
2022-08-29T11:33:03.513Z,1011.90
2022-08-29T11:34:03.565Z,1011.88
2022-08-29T11:35:03.654Z,1011.87
2022-08-29T11:36:05.061Z,1011.86
2022-08-29T11:37:03.778Z,1011.83
2022-08-29T11:38:02.845Z,1011.81
2022-08-29T11:39:02.915Z,1011.78
2022-08-29T11:40:02.948Z,1011.81
2022-08-29T11:42:03.126Z,1011.76
2022-08-29T11:43:03.859Z,1011.75
2022-08-29T11:44:03.345Z,1011.79
2022-08-29T11:45:03.555Z,1011.74
2022-08-29T11:46:03.529Z,1011.78
2022-08-29T11:47:06.120Z,1011.73
2022-08-29T11:48:03.062Z,1011.75
2022-08-29T11:49:03.157Z,1011.74
2022-08-29T11:50:03.209Z,1011.69
2022-08-29T11:51:03.239Z,1011.67
2022-08-29T11:52:03.339Z,1011.66
2022-08-29T11:53:02.769Z,1011.65
2022-08-29T11:54:02.953Z,1011.63
2022-08-29T11:55:02.808Z,1011.66
2022-08-29T11:56:02.963Z,1011.66
2022-08-29T11:57:03.026Z,1011.60
2022-08-29T11:58:06.373Z,1011.59
2022-08-29T11:59:03.663Z,1011.58
2022-08-29T12:00:04.013Z,1011.60
2022-08-29T12:01:03.998Z,1011.60
2022-08-29T12:02:03.660Z,1011.60
2022-08-29T12:03:07.309Z,1011.55
2022-08-29T12:04:02.651Z,1011.61
2022-08-29T12:05:02.375Z,1011.60
2022-08-29T12:06:02.350Z,1011.58